Flugplatz Arnstadt-Alkersleben

Für EDBA sind keine METAR/TAF Berichte vorhanden.
Es werden die Flugwettermeldungen vom Flugplatz Erfurt in 17 km Entfernung angezeigt.

Bericht für EDDE

vom 20.09. um 14:20 UTC

Wind 8 kt aus 60°

Sichtweite 10 km oder mehr

gute Sicht, keine Wolken < 5000 ft, keine CB, keine Wettererscheinungen (CAVOK)

Temperatur 22.0°C

Taupunkt 6.0°C

Luftfeuchtigkeit 35%

Luftdruck 1017 hPa

keine wesentliche Wetteränderung innerhalb den nächsten 2 Stunden zu erwarten

EDDE 201420Z 06008KT 030V100 CAVOK 22/06 Q1017 NOSIG

Prognose für EDDE

vom 20.09. um 11:00 UTC

Zwischen 12:00 UTC und 20:00 UTC

Wind 6 kt aus 60°

Sichtweite 10 km oder mehr

keine signifikanten Wettererscheinungen

keine Wolken


Zwischen 20:00 und 00:00 UTC übergehend zu

Wind 4 kt aus 130°

Sichtweite 10 km oder mehr

keine signifikanten Wettererscheinungen

keine Wolken


Am 21.09. zwischen 08:00 und 11:00 UTC übergehend zu

Wind 5 kt aus 50°

Sichtweite 10 km oder mehr

keine signifikanten Wettererscheinungen

keine Wolken

TAF EDDE 201100Z 2012/2112 06006KT CAVOK BECMG 2020/2024 13004KT BECMG 2108/2111 05005KT
Impressum